sensor_id;sensor_type;location;lat;lon;timestamp;temperature;humidity
54202;DHT22;40108;53.152;5.844;2023-04-26T00:00:25;3.70;87.80
54202;DHT22;40108;53.152;5.844;2023-04-26T00:02:50;3.70;87.70
54202;DHT22;40108;53.152;5.844;2023-04-26T00:05:17;3.70;87.60
54202;DHT22;40108;53.152;5.844;2023-04-26T00:07:43;3.60;87.60
54202;DHT22;40108;53.152;5.844;2023-04-26T00:10:09;3.50;87.60
54202;DHT22;40108;53.152;5.844;2023-04-26T00:12:35;3.40;87.70
54202;DHT22;40108;53.152;5.844;2023-04-26T00:15:02;3.40;87.70
54202;DHT22;40108;53.152;5.844;2023-04-26T00:17:28;3.30;87.70
54202;DHT22;40108;53.152;5.844;2023-04-26T00:19:54;3.20;87.90
54202;DHT22;40108;53.152;5.844;2023-04-26T00:22:22;3.20;87.90
54202;DHT22;40108;53.152;5.844;2023-04-26T00:24:48;3.20;88.10
54202;DHT22;40108;53.152;5.844;2023-04-26T00:27:14;3.20;88.20
54202;DHT22;40108;53.152;5.844;2023-04-26T00:29:40;3.20;88.40
54202;DHT22;40108;53.152;5.844;2023-04-26T00:32:06;3.40;88.70
54202;DHT22;40108;53.152;5.844;2023-04-26T00:34:36;3.50;88.90
54202;DHT22;40108;53.152;5.844;2023-04-26T00:37:03;3.50;88.80
54202;DHT22;40108;53.152;5.844;2023-04-26T00:39:30;3.60;89.00
54202;DHT22;40108;53.152;5.844;2023-04-26T00:41:56;3.70;89.20
54202;DHT22;40108;53.152;5.844;2023-04-26T00:44:22;3.70;89.20
54202;DHT22;40108;53.152;5.844;2023-04-26T00:46:49;3.80;89.20
54202;DHT22;40108;53.152;5.844;2023-04-26T00:49:18;3.80;89.00
54202;DHT22;40108;53.152;5.844;2023-04-26T00:51:47;3.90;88.90
54202;DHT22;40108;53.152;5.844;2023-04-26T00:54:14;3.80;89.00
54202;DHT22;40108;53.152;5.844;2023-04-26T00:56:41;3.80;88.80
54202;DHT22;40108;53.152;5.844;2023-04-26T00:59:06;3.80;88.90
54202;DHT22;40108;53.152;5.844;2023-04-26T01:01:33;3.80;88.90
54202;DHT22;40108;53.152;5.844;2023-04-26T01:03:59;3.70;88.90
54202;DHT22;40108;53.152;5.844;2023-04-26T01:06:29;3.70;88.80
54202;DHT22;40108;53.152;5.844;2023-04-26T01:09:02;3.70;88.70
54202;DHT22;40108;53.152;5.844;2023-04-26T01:11:30;3.60;88.80
54202;DHT22;40108;53.152;5.844;2023-04-26T01:13:57;3.60;88.70
54202;DHT22;40108;53.152;5.844;2023-04-26T01:16:23;3.50;88.90
54202;DHT22;40108;53.152;5.844;2023-04-26T01:18:52;3.50;89.00
54202;DHT22;40108;53.152;5.844;2023-04-26T01:21:24;3.50;89.00
54202;DHT22;40108;53.152;5.844;2023-04-26T01:23:50;3.50;89.00
54202;DHT22;40108;53.152;5.844;2023-04-26T01:26:17;3.50;88.90
54202;DHT22;40108;53.152;5.844;2023-04-26T01:28:43;3.40;88.90
54202;DHT22;40108;53.152;5.844;2023-04-26T01:31:09;3.40;89.10
54202;DHT22;40108;53.152;5.844;2023-04-26T01:33:34;3.40;89.10
54202;DHT22;40108;53.152;5.844;2023-04-26T01:36:00;3.40;89.20
54202;DHT22;40108;53.152;5.844;2023-04-26T01:38:26;3.30;89.30
54202;DHT22;40108;53.152;5.844;2023-04-26T01:40:51;3.40;89.40
54202;DHT22;40108;53.152;5.844;2023-04-26T01:43:17;3.30;89.20
54202;DHT22;40108;53.152;5.844;2023-04-26T01:45:48;3.30;89.20
54202;DHT22;40108;53.152;5.844;2023-04-26T01:48:14;3.20;89.20
54202;DHT22;40108;53.152;5.844;2023-04-26T01:50:39;3.20;89.00
54202;DHT22;40108;53.152;5.844;2023-04-26T01:53:05;3.20;89.00
54202;DHT22;40108;53.152;5.844;2023-04-26T01:55:32;3.10;89.00
54202;DHT22;40108;53.152;5.844;2023-04-26T01:57:58;3.10;89.00
54202;DHT22;40108;53.152;5.844;2023-04-26T02:00:23;3.00;89.10
54202;DHT22;40108;53.152;5.844;2023-04-26T02:02:49;3.00;89.00
54202;DHT22;40108;53.152;5.844;2023-04-26T02:05:15;2.90;89.10
54202;DHT22;40108;53.152;5.844;2023-04-26T02:07:40;2.80;89.10
54202;DHT22;40108;53.152;5.844;2023-04-26T02:10:06;2.80;89.20
54202;DHT22;40108;53.152;5.844;2023-04-26T02:12:32;2.80;89.20
54202;DHT22;40108;53.152;5.844;2023-04-26T02:14:58;2.70;89.20
54202;DHT22;40108;53.152;5.844;2023-04-26T02:17:25;2.70;89.30
54202;DHT22;40108;53.152;5.844;2023-04-26T02:19:51;2.70;89.30
54202;DHT22;40108;53.152;5.844;2023-04-26T02:22:16;2.70;89.40
54202;DHT22;40108;53.152;5.844;2023-04-26T02:24:42;2.70;89.60
54202;DHT22;40108;53.152;5.844;2023-04-26T02:27:08;2.70;89.70
54202;DHT22;40108;53.152;5.844;2023-04-26T02:29:34;2.70;89.80
54202;DHT22;40108;53.152;5.844;2023-04-26T02:32:01;2.70;90.00
54202;DHT22;40108;53.152;5.844;2023-04-26T02:34:27;2.70;89.90
54202;DHT22;40108;53.152;5.844;2023-04-26T02:36:53;2.70;89.80
54202;DHT22;40108;53.152;5.844;2023-04-26T02:39:19;2.70;89.80
54202;DHT22;40108;53.152;5.844;2023-04-26T02:41:45;2.70;89.70
54202;DHT22;40108;53.152;5.844;2023-04-26T02:44:11;2.80;89.80
54202;DHT22;40108;53.152;5.844;2023-04-26T02:46:36;2.80;89.80
54202;DHT22;40108;53.152;5.844;2023-04-26T02:49:02;2.90;89.90
54202;DHT22;40108;53.152;5.844;2023-04-26T02:51:28;2.90;89.90
54202;DHT22;40108;53.152;5.844;2023-04-26T02:53:54;2.90;89.90
54202;DHT22;40108;53.152;5.844;2023-04-26T02:56:19;3.00;89.80
54202;DHT22;40108;53.152;5.844;2023-04-26T02:58:45;3.00;89.90
54202;DHT22;40108;53.152;5.844;2023-04-26T03:01:11;2.90;89.90
54202;DHT22;40108;53.152;5.844;2023-04-26T03:03:38;3.00;89.90
54202;DHT22;40108;53.152;5.844;2023-04-26T03:06:04;2.90;89.90
54202;DHT22;40108;53.152;5.844;2023-04-26T03:08:30;3.00;89.80
54202;DHT22;40108;53.152;5.844;2023-04-26T03:10:56;2.90;89.70
54202;DHT22;40108;53.152;5.844;2023-04-26T03:13:22;2.90;89.40
54202;DHT22;40108;53.152;5.844;2023-04-26T03:15:49;2.80;89.30
54202;DHT22;40108;53.152;5.844;2023-04-26T03:18:16;2.70;89.30
54202;DHT22;40108;53.152;5.844;2023-04-26T03:20:42;2.70;89.60
54202;DHT22;40108;53.152;5.844;2023-04-26T03:23:08;2.70;89.70
54202;DHT22;40108;53.152;5.844;2023-04-26T03:25:33;2.70;89.90
54202;DHT22;40108;53.152;5.844;2023-04-26T03:27:59;2.70;89.70
54202;DHT22;40108;53.152;5.844;2023-04-26T03:30:25;2.70;89.90
54202;DHT22;40108;53.152;5.844;2023-04-26T03:32:51;2.70;89.90
54202;DHT22;40108;53.152;5.844;2023-04-26T03:35:17;2.70;89.80
54202;DHT22;40108;53.152;5.844;2023-04-26T03:37:43;2.70;89.80
54202;DHT22;40108;53.152;5.844;2023-04-26T03:40:09;2.60;89.80
54202;DHT22;40108;53.152;5.844;2023-04-26T03:42:36;2.60;89.70
54202;DHT22;40108;53.152;5.844;2023-04-26T03:45:02;2.50;89.70
54202;DHT22;40108;53.152;5.844;2023-04-26T03:47:31;2.50;89.90
54202;DHT22;40108;53.152;5.844;2023-04-26T03:49:57;2.50;90.00
54202;DHT22;40108;53.152;5.844;2023-04-26T03:52:23;2.50;90.10
54202;DHT22;40108;53.152;5.844;2023-04-26T03:54:49;2.50;90.20
54202;DHT22;40108;53.152;5.844;2023-04-26T03:57:15;2.50;90.20
54202;DHT22;40108;53.152;5.844;2023-04-26T03:59:40;2.60;90.40
54202;DHT22;40108;53.152;5.844;2023-04-26T04:02:06;2.60;90.50
54202;DHT22;40108;53.152;5.844;2023-04-26T04:04:32;2.60;90.60
54202;DHT22;40108;53.152;5.844;2023-04-26T04:06:58;2.70;90.50
54202;DHT22;40108;53.152;5.844;2023-04-26T04:09:24;2.70;90.60
54202;DHT22;40108;53.152;5.844;2023-04-26T04:11:49;2.70;90.50
54202;DHT22;40108;53.152;5.844;2023-04-26T04:14:16;2.60;90.50
54202;DHT22;40108;53.152;5.844;2023-04-26T04:16:42;2.70;90.80
54202;DHT22;40108;53.152;5.844;2023-04-26T04:19:07;2.70;90.70
54202;DHT22;40108;53.152;5.844;2023-04-26T04:21:33;2.70;90.80
54202;DHT22;40108;53.152;5.844;2023-04-26T04:23:59;2.80;90.90
54202;DHT22;40108;53.152;5.844;2023-04-26T04:26:25;2.70;90.50
54202;DHT22;40108;53.152;5.844;2023-04-26T04:28:53;2.70;90.60
54202;DHT22;40108;53.152;5.844;2023-04-26T04:31:20;2.70;90.60
54202;DHT22;40108;53.152;5.844;2023-04-26T04:33:46;2.60;90.70
54202;DHT22;40108;53.152;5.844;2023-04-26T04:36:12;2.60;90.60
54202;DHT22;40108;53.152;5.844;2023-04-26T04:38:37;2.50;90.70
54202;DHT22;40108;53.152;5.844;2023-04-26T04:41:04;2.50;90.80
54202;DHT22;40108;53.152;5.844;2023-04-26T04:43:29;2.50;90.90
54202;DHT22;40108;53.152;5.844;2023-04-26T04:45:55;2.50;91.10
54202;DHT22;40108;53.152;5.844;2023-04-26T04:48:21;2.60;91.20
54202;DHT22;40108;53.152;5.844;2023-04-26T04:50:48;2.60;91.10
54202;DHT22;40108;53.152;5.844;2023-04-26T04:53:14;2.60;91.00
54202;DHT22;40108;53.152;5.844;2023-04-26T04:55:39;2.60;90.90
54202;DHT22;40108;53.152;5.844;2023-04-26T04:58:05;2.60;90.80
54202;DHT22;40108;53.152;5.844;2023-04-26T05:00:31;2.60;90.70
54202;DHT22;40108;53.152;5.844;2023-04-26T05:02:57;2.60;90.60
54202;DHT22;40108;53.152;5.844;2023-04-26T05:05:22;2.60;90.50
54202;DHT22;40108;53.152;5.844;2023-04-26T05:07:48;2.60;90.40
54202;DHT22;40108;53.152;5.844;2023-04-26T05:10:15;2.50;90.30
54202;DHT22;40108;53.152;5.844;2023-04-26T05:12:40;2.50;90.30
54202;DHT22;40108;53.152;5.844;2023-04-26T05:15:06;2.50;90.30
54202;DHT22;40108;53.152;5.844;2023-04-26T05:17:33;2.50;90.30
54202;DHT22;40108;53.152;5.844;2023-04-26T05:19:58;2.60;90.40
54202;DHT22;40108;53.152;5.844;2023-04-26T05:22:25;2.60;90.50
54202;DHT22;40108;53.152;5.844;2023-04-26T05:24:51;2.60;90.50
54202;DHT22;40108;53.152;5.844;2023-04-26T05:27:17;2.70;90.60
54202;DHT22;40108;53.152;5.844;2023-04-26T05:29:43;2.70;90.70
54202;DHT22;40108;53.152;5.844;2023-04-26T05:32:08;2.80;90.80
54202;DHT22;40108;53.152;5.844;2023-04-26T05:34:34;2.80;90.80
54202;DHT22;40108;53.152;5.844;2023-04-26T05:37:01;2.90;90.70
54202;DHT22;40108;53.152;5.844;2023-04-26T05:39:26;2.90;90.70
54202;DHT22;40108;53.152;5.844;2023-04-26T05:41:52;3.00;90.80
54202;DHT22;40108;53.152;5.844;2023-04-26T05:44:18;3.10;90.90
54202;DHT22;40108;53.152;5.844;2023-04-26T05:46:44;3.20;90.90
54202;DHT22;40108;53.152;5.844;2023-04-26T05:49:10;3.30;90.90
54202;DHT22;40108;53.152;5.844;2023-04-26T05:51:36;3.50;90.80
54202;DHT22;40108;53.152;5.844;2023-04-26T05:54:02;3.70;90.90
54202;DHT22;40108;53.152;5.844;2023-04-26T05:56:28;3.80;90.60
54202;DHT22;40108;53.152;5.844;2023-04-26T05:58:53;3.90;90.30
54202;DHT22;40108;53.152;5.844;2023-04-26T06:01:19;4.10;90.20
54202;DHT22;40108;53.152;5.844;2023-04-26T06:03:45;4.20;90.10
54202;DHT22;40108;53.152;5.844;2023-04-26T06:06:11;4.20;90.10
54202;DHT22;40108;53.152;5.844;2023-04-26T06:08:37;4.30;90.20
54202;DHT22;40108;53.152;5.844;2023-04-26T06:11:03;4.50;90.30
54202;DHT22;40108;53.152;5.844;2023-04-26T06:13:29;4.70;90.50
54202;DHT22;40108;53.152;5.844;2023-04-26T06:15:58;4.90;90.40
54202;DHT22;40108;53.152;5.844;2023-04-26T06:18:24;5.00;90.10
54202;DHT22;40108;53.152;5.844;2023-04-26T06:20:50;5.10;89.90
54202;DHT22;40108;53.152;5.844;2023-04-26T06:23:16;5.20;89.80
54202;DHT22;40108;53.152;5.844;2023-04-26T06:25:41;5.20;89.60
54202;DHT22;40108;53.152;5.844;2023-04-26T06:28:11;5.30;89.50
54202;DHT22;40108;53.152;5.844;2023-04-26T06:30:36;5.50;89.50
54202;DHT22;40108;53.152;5.844;2023-04-26T06:33:02;5.70;89.60
54202;DHT22;40108;53.152;5.844;2023-04-26T06:35:28;5.80;89.30
54202;DHT22;40108;53.152;5.844;2023-04-26T06:37:54;5.90;88.70
54202;DHT22;40108;53.152;5.844;2023-04-26T06:40:20;6.00;88.10
54202;DHT22;40108;53.152;5.844;2023-04-26T06:42:46;6.10;87.30
54202;DHT22;40108;53.152;5.844;2023-04-26T06:45:12;6.20;86.90
54202;DHT22;40108;53.152;5.844;2023-04-26T06:47:38;6.30;86.80
54202;DHT22;40108;53.152;5.844;2023-04-26T06:50:04;6.50;85.80
54202;DHT22;40108;53.152;5.844;2023-04-26T06:52:30;6.70;86.20
54202;DHT22;40108;53.152;5.844;2023-04-26T06:54:56;6.80;85.80
54202;DHT22;40108;53.152;5.844;2023-04-26T06:57:22;7.00;85.20
54202;DHT22;40108;53.152;5.844;2023-04-26T06:59:47;7.10;85.00
54202;DHT22;40108;53.152;5.844;2023-04-26T07:02:13;7.20;83.90
54202;DHT22;40108;53.152;5.844;2023-04-26T07:04:39;7.20;83.20
54202;DHT22;40108;53.152;5.844;2023-04-26T07:07:05;7.20;82.50
54202;DHT22;40108;53.152;5.844;2023-04-26T07:09:30;7.40;82.30
54202;DHT22;40108;53.152;5.844;2023-04-26T07:11:56;7.50;79.00
54202;DHT22;40108;53.152;5.844;2023-04-26T07:14:23;7.60;80.20
54202;DHT22;40108;53.152;5.844;2023-04-26T07:16:48;8.00;79.80
54202;DHT22;40108;53.152;5.844;2023-04-26T07:19:15;8.10;77.80
54202;DHT22;40108;53.152;5.844;2023-04-26T07:21:40;8.20;79.00
54202;DHT22;40108;53.152;5.844;2023-04-26T07:24:06;8.40;78.00
54202;DHT22;40108;53.152;5.844;2023-04-26T07:26:34;8.40;77.30
54202;DHT22;40108;53.152;5.844;2023-04-26T07:29:00;8.50;78.10
54202;DHT22;40108;53.152;5.844;2023-04-26T07:31:26;8.60;76.00
54202;DHT22;40108;53.152;5.844;2023-04-26T07:33:51;8.60;77.00
54202;DHT22;40108;53.152;5.844;2023-04-26T07:36:17;8.50;74.80
54202;DHT22;40108;53.152;5.844;2023-04-26T07:38:42;8.50;74.60
54202;DHT22;40108;53.152;5.844;2023-04-26T07:41:08;8.60;76.40
54202;DHT22;40108;53.152;5.844;2023-04-26T07:43:34;8.70;76.30
54202;DHT22;40108;53.152;5.844;2023-04-26T07:46:00;8.70;72.90
54202;DHT22;40108;53.152;5.844;2023-04-26T07:48:26;8.80;74.90
54202;DHT22;40108;53.152;5.844;2023-04-26T07:50:52;8.90;75.70
54202;DHT22;40108;53.152;5.844;2023-04-26T07:53:18;8.90;73.90
54202;DHT22;40108;53.152;5.844;2023-04-26T07:55:44;8.80;74.00
54202;DHT22;40108;53.152;5.844;2023-04-26T07:58:10;8.70;72.90
54202;DHT22;40108;53.152;5.844;2023-04-26T08:00:42;8.50;72.40
54202;DHT22;40108;53.152;5.844;2023-04-26T08:03:08;8.30;73.00
54202;DHT22;40108;53.152;5.844;2023-04-26T08:05:34;8.30;74.50
54202;DHT22;40108;53.152;5.844;2023-04-26T08:08:02;8.60;74.10
54202;DHT22;40108;53.152;5.844;2023-04-26T08:10:28;9.00;74.30
54202;DHT22;40108;53.152;5.844;2023-04-26T08:12:55;9.30;72.30
54202;DHT22;40108;53.152;5.844;2023-04-26T08:15:22;9.70;73.50
54202;DHT22;40108;53.152;5.844;2023-04-26T08:17:47;9.90;71.10
54202;DHT22;40108;53.152;5.844;2023-04-26T08:20:17;10.00;71.90
54202;DHT22;40108;53.152;5.844;2023-04-26T08:22:43;10.10;70.20
54202;DHT22;40108;53.152;5.844;2023-04-26T08:25:09;9.80;70.40
54202;DHT22;40108;53.152;5.844;2023-04-26T08:27:35;9.20;71.30
54202;DHT22;40108;53.152;5.844;2023-04-26T08:30:01;8.70;73.90
54202;DHT22;40108;53.152;5.844;2023-04-26T08:32:27;8.20;75.60
54202;DHT22;40108;53.152;5.844;2023-04-26T08:34:52;7.70;76.20
54202;DHT22;40108;53.152;5.844;2023-04-26T08:37:18;7.30;77.50
54202;DHT22;40108;53.152;5.844;2023-04-26T08:39:44;7.10;78.40
54202;DHT22;40108;53.152;5.844;2023-04-26T08:42:14;6.90;78.80
54202;DHT22;40108;53.152;5.844;2023-04-26T08:44:41;6.80;79.90
54202;DHT22;40108;53.152;5.844;2023-04-26T08:50:01;6.80;81.70
54202;DHT22;40108;53.152;5.844;2023-04-26T08:52:30;6.80;82.40
54202;DHT22;40108;53.152;5.844;2023-04-26T08:54:57;6.80;82.70
54202;DHT22;40108;53.152;5.844;2023-04-26T08:57:24;6.90;82.90
54202;DHT22;40108;53.152;5.844;2023-04-26T08:59:50;7.00;83.00
54202;DHT22;40108;53.152;5.844;2023-04-26T09:02:21;7.10;83.00
54202;DHT22;40108;53.152;5.844;2023-04-26T09:04:49;7.20;82.90
54202;DHT22;40108;53.152;5.844;2023-04-26T09:07:24;7.20;82.80
54202;DHT22;40108;53.152;5.844;2023-04-26T09:09:53;7.40;82.30
54202;DHT22;40108;53.152;5.844;2023-04-26T09:12:22;7.50;82.30
54202;DHT22;40108;53.152;5.844;2023-04-26T09:14:47;7.60;82.20
54202;DHT22;40108;53.152;5.844;2023-04-26T09:19:56;7.80;81.00
54202;DHT22;40108;53.152;5.844;2023-04-26T09:22:33;8.00;80.80
54202;DHT22;40108;53.152;5.844;2023-04-26T09:25:00;8.10;80.10
54202;DHT22;40108;53.152;5.844;2023-04-26T09:27:36;8.10;79.90
54202;DHT22;40108;53.152;5.844;2023-04-26T09:35:32;8.40;78.00
54202;DHT22;40108;53.152;5.844;2023-04-26T09:38:13;8.40;76.30
54202;DHT22;40108;53.152;5.844;2023-04-26T09:40:42;8.40;77.30
54202;DHT22;40108;53.152;5.844;2023-04-26T09:45:48;8.30;76.20
54202;DHT22;40108;53.152;5.844;2023-04-26T09:48:23;8.20;75.70
54202;DHT22;40108;53.152;5.844;2023-04-26T09:51:08;8.20;76.00
54202;DHT22;40108;53.152;5.844;2023-04-26T09:53:41;8.20;75.30
54202;DHT22;40108;53.152;5.844;2023-04-26T09:56:11;8.20;76.20
54202;DHT22;40108;53.152;5.844;2023-04-26T09:59:00;8.20;76.80
54202;DHT22;40108;53.152;5.844;2023-04-26T10:01:30;8.20;77.00
54202;DHT22;40108;53.152;5.844;2023-04-26T10:04:00;8.40;76.90
54202;DHT22;40108;53.152;5.844;2023-04-26T10:06:26;8.40;75.80
54202;DHT22;40108;53.152;5.844;2023-04-26T10:08:53;8.40;76.90
54202;DHT22;40108;53.152;5.844;2023-04-26T10:11:20;8.50;76.30
54202;DHT22;40108;53.152;5.844;2023-04-26T10:13:49;8.60;77.10
54202;DHT22;40108;53.152;5.844;2023-04-26T10:16:15;8.70;75.40
54202;DHT22;40108;53.152;5.844;2023-04-26T10:18:41;8.60;74.70
54202;DHT22;40108;53.152;5.844;2023-04-26T10:21:11;8.60;74.00
54202;DHT22;40108;53.152;5.844;2023-04-26T10:23:40;8.60;74.20
54202;DHT22;40108;53.152;5.844;2023-04-26T10:26:06;8.90;74.00
54202;DHT22;40108;53.152;5.844;2023-04-26T10:31:12;9.20;70.90
54202;DHT22;40108;53.152;5.844;2023-04-26T10:33:38;9.10;71.30
54202;DHT22;40108;53.152;5.844;2023-04-26T10:36:05;9.10;71.20
54202;DHT22;40108;53.152;5.844;2023-04-26T10:38:32;9.10;72.00
54202;DHT22;40108;53.152;5.844;2023-04-26T10:41:31;9.10;71.90
54202;DHT22;40108;53.152;5.844;2023-04-26T10:43:59;9.10;71.70
54202;DHT22;40108;53.152;5.844;2023-04-26T10:46:33;9.00;70.70
54202;DHT22;40108;53.152;5.844;2023-04-26T10:49:14;9.00;71.40
54202;DHT22;40108;53.152;5.844;2023-04-26T10:51:40;8.80;70.70
54202;DHT22;40108;53.152;5.844;2023-04-26T10:54:47;8.70;69.70
54202;DHT22;40108;53.152;5.844;2023-04-26T10:57:14;8.50;69.50
54202;DHT22;40108;53.152;5.844;2023-04-26T10:59:52;8.40;69.80
54202;DHT22;40108;53.152;5.844;2023-04-26T11:02:45;8.50;70.50
54202;DHT22;40108;53.152;5.844;2023-04-26T11:05:35;8.60;71.90
54202;DHT22;40108;53.152;5.844;2023-04-26T11:08:14;8.60;71.90
54202;DHT22;40108;53.152;5.844;2023-04-26T11:10:41;8.70;72.50
54202;DHT22;40108;53.152;5.844;2023-04-26T11:13:07;8.70;71.40
54202;DHT22;40108;53.152;5.844;2023-04-26T11:15:34;8.80;71.30
54202;DHT22;40108;53.152;5.844;2023-04-26T11:18:03;8.90;69.60
54202;DHT22;40108;53.152;5.844;2023-04-26T11:20:33;9.00;70.10
54202;DHT22;40108;53.152;5.844;2023-04-26T11:22:59;9.20;69.40
54202;DHT22;40108;53.152;5.844;2023-04-26T11:25:26;9.20;67.60
54202;DHT22;40108;53.152;5.844;2023-04-26T11:28:01;9.40;66.50
54202;DHT22;40108;53.152;5.844;2023-04-26T11:30:30;9.60;67.70
54202;DHT22;40108;53.152;5.844;2023-04-26T11:33:00;9.70;66.30
54202;DHT22;40108;53.152;5.844;2023-04-26T11:35:26;9.70;65.10
54202;DHT22;40108;53.152;5.844;2023-04-26T11:37:57;9.70;65.70
54202;DHT22;40108;53.152;5.844;2023-04-26T11:40:30;9.90;65.70
54202;DHT22;40108;53.152;5.844;2023-04-26T11:43:03;10.10;63.20
54202;DHT22;40108;53.152;5.844;2023-04-26T11:45:35;10.20;64.40
54202;DHT22;40108;53.152;5.844;2023-04-26T11:48:02;10.20;61.60
54202;DHT22;40108;53.152;5.844;2023-04-26T11:50:32;10.20;63.00
54202;DHT22;40108;53.152;5.844;2023-04-26T11:53:00;10.30;64.60
54202;DHT22;40108;53.152;5.844;2023-04-26T11:55:30;10.60;62.10
54202;DHT22;40108;53.152;5.844;2023-04-26T11:58:00;10.80;63.00
54202;DHT22;40108;53.152;5.844;2023-04-26T12:00:28;11.20;62.00
54202;DHT22;40108;53.152;5.844;2023-04-26T12:02:53;11.30;60.50
54202;DHT22;40108;53.152;5.844;2023-04-26T12:07:55;11.70;60.80
54202;DHT22;40108;53.152;5.844;2023-04-26T12:10:24;11.70;57.80
54202;DHT22;40108;53.152;5.844;2023-04-26T12:12:52;11.90;59.10
54202;DHT22;40108;53.152;5.844;2023-04-26T12:15:21;11.90;54.90
54202;DHT22;40108;53.152;5.844;2023-04-26T12:17:54;12.10;60.10
54202;DHT22;40108;53.152;5.844;2023-04-26T12:20:30;12.10;57.20
54202;DHT22;40108;53.152;5.844;2023-04-26T12:23:04;12.10;57.20
54202;DHT22;40108;53.152;5.844;2023-04-26T12:25:31;12.10;55.90
54202;DHT22;40108;53.152;5.844;2023-04-26T12:27:57;11.90;55.10
54202;DHT22;40108;53.152;5.844;2023-04-26T12:30:25;11.80;57.20
54202;DHT22;40108;53.152;5.844;2023-04-26T12:32:51;11.70;57.60
54202;DHT22;40108;53.152;5.844;2023-04-26T12:35:17;11.70;58.10
54202;DHT22;40108;53.152;5.844;2023-04-26T12:37:43;11.50;55.10
54202;DHT22;40108;53.152;5.844;2023-04-26T12:40:10;11.30;56.20
54202;DHT22;40108;53.152;5.844;2023-04-26T12:42:36;11.20;57.80
54202;DHT22;40108;53.152;5.844;2023-04-26T12:45:02;10.90;58.70
54202;DHT22;40108;53.152;5.844;2023-04-26T12:47:29;10.60;63.00
54202;DHT22;40108;53.152;5.844;2023-04-26T12:49:56;10.30;65.40
54202;DHT22;40108;53.152;5.844;2023-04-26T12:52:23;10.10;66.20
54202;DHT22;40108;53.152;5.844;2023-04-26T12:54:49;9.80;66.60
54202;DHT22;40108;53.152;5.844;2023-04-26T12:57:15;9.70;67.50
54202;DHT22;40108;53.152;5.844;2023-04-26T12:59:40;9.40;69.10
54202;DHT22;40108;53.152;5.844;2023-04-26T13:02:06;9.30;70.70
54202;DHT22;40108;53.152;5.844;2023-04-26T13:04:33;9.10;70.80
54202;DHT22;40108;53.152;5.844;2023-04-26T13:06:58;9.00;71.60
54202;DHT22;40108;53.152;5.844;2023-04-26T13:09:24;8.90;71.50
54202;DHT22;40108;53.152;5.844;2023-04-26T13:11:50;8.90;71.30
54202;DHT22;40108;53.152;5.844;2023-04-26T13:14:16;8.90;70.90
54202;DHT22;40108;53.152;5.844;2023-04-26T13:16:41;8.90;70.70
54202;DHT22;40108;53.152;5.844;2023-04-26T13:19:11;9.00;71.40
54202;DHT22;40108;53.152;5.844;2023-04-26T13:21:37;9.20;71.00
54202;DHT22;40108;53.152;5.844;2023-04-26T13:24:03;9.20;70.70
54202;DHT22;40108;53.152;5.844;2023-04-26T13:26:29;9.40;71.00
54202;DHT22;40108;53.152;5.844;2023-04-26T13:28:54;9.50;69.50
54202;DHT22;40108;53.152;5.844;2023-04-26T13:31:20;9.60;69.10
54202;DHT22;40108;53.152;5.844;2023-04-26T13:33:46;9.70;67.90
54202;DHT22;40108;53.152;5.844;2023-04-26T13:36:14;9.70;67.10
54202;DHT22;40108;53.152;5.844;2023-04-26T13:38:41;9.70;65.60
54202;DHT22;40108;53.152;5.844;2023-04-26T13:41:07;9.70;64.10
54202;DHT22;40108;53.152;5.844;2023-04-26T13:43:34;9.70;62.90
54202;DHT22;40108;53.152;5.844;2023-04-26T13:46:00;9.80;64.00
54202;DHT22;40108;53.152;5.844;2023-04-26T13:48:26;9.80;62.30
54202;DHT22;40108;53.152;5.844;2023-04-26T13:50:52;9.90;64.60
54202;DHT22;40108;53.152;5.844;2023-04-26T13:53:21;10.10;63.10
54202;DHT22;40108;53.152;5.844;2023-04-26T13:55:50;10.10;62.70
54202;DHT22;40108;53.152;5.844;2023-04-26T13:58:16;10.20;60.40
54202;DHT22;40108;53.152;5.844;2023-04-26T14:00:42;10.40;60.60
54202;DHT22;40108;53.152;5.844;2023-04-26T14:03:08;10.40;61.90
54202;DHT22;40108;53.152;5.844;2023-04-26T14:05:33;10.50;61.10
54202;DHT22;40108;53.152;5.844;2023-04-26T14:07:59;10.50;60.10
54202;DHT22;40108;53.152;5.844;2023-04-26T14:10:25;10.50;60.50
54202;DHT22;40108;53.152;5.844;2023-04-26T14:12:51;10.50;60.50
54202;DHT22;40108;53.152;5.844;2023-04-26T14:15:17;10.60;60.50
54202;DHT22;40108;53.152;5.844;2023-04-26T14:17:42;10.60;61.00
54202;DHT22;40108;53.152;5.844;2023-04-26T14:20:11;10.60;60.20
54202;DHT22;40108;53.152;5.844;2023-04-26T14:22:37;10.40;61.20
54202;DHT22;40108;53.152;5.844;2023-04-26T14:25:03;10.40;61.40
54202;DHT22;40108;53.152;5.844;2023-04-26T14:27:29;10.20;61.20
54202;DHT22;40108;53.152;5.844;2023-04-26T14:29:54;10.20;61.90
54202;DHT22;40108;53.152;5.844;2023-04-26T14:32:20;10.10;62.10
54202;DHT22;40108;53.152;5.844;2023-04-26T14:34:46;10.10;62.80
54202;DHT22;40108;53.152;5.844;2023-04-26T14:37:12;10.00;64.00
54202;DHT22;40108;53.152;5.844;2023-04-26T14:39:37;10.00;65.50
54202;DHT22;40108;53.152;5.844;2023-04-26T14:42:03;9.90;66.70
54202;DHT22;40108;53.152;5.844;2023-04-26T14:44:29;9.70;66.60
54202;DHT22;40108;53.152;5.844;2023-04-26T14:46:55;9.70;67.40
54202;DHT22;40108;53.152;5.844;2023-04-26T14:49:21;9.60;67.30
54202;DHT22;40108;53.152;5.844;2023-04-26T14:51:46;9.50;67.90
54202;DHT22;40108;53.152;5.844;2023-04-26T14:54:12;9.40;68.60
54202;DHT22;40108;53.152;5.844;2023-04-26T14:56:38;9.30;68.60
54202;DHT22;40108;53.152;5.844;2023-04-26T14:59:04;9.30;68.10
54202;DHT22;40108;53.152;5.844;2023-04-26T15:01:30;9.20;67.90
54202;DHT22;40108;53.152;5.844;2023-04-26T15:03:56;9.20;67.40
54202;DHT22;40108;53.152;5.844;2023-04-26T15:06:21;9.10;67.90
54202;DHT22;40108;53.152;5.844;2023-04-26T15:08:48;9.10;67.90
54202;DHT22;40108;53.152;5.844;2023-04-26T15:11:14;9.20;67.40
54202;DHT22;40108;53.152;5.844;2023-04-26T15:13:40;9.20;65.60
54202;DHT22;40108;53.152;5.844;2023-04-26T15:16:06;9.20;63.60
54202;DHT22;40108;53.152;5.844;2023-04-26T15:18:32;9.20;63.90
54202;DHT22;40108;53.152;5.844;2023-04-26T15:20:58;9.40;61.30
54202;DHT22;40108;53.152;5.844;2023-04-26T15:23:24;9.30;59.10
54202;DHT22;40108;53.152;5.844;2023-04-26T15:25:50;9.30;59.70
54202;DHT22;40108;53.152;5.844;2023-04-26T15:28:17;9.20;59.60
54202;DHT22;40108;53.152;5.844;2023-04-26T15:30:43;9.20;60.70
54202;DHT22;40108;53.152;5.844;2023-04-26T15:33:09;9.20;61.60
54202;DHT22;40108;53.152;5.844;2023-04-26T15:35:37;9.20;63.20
54202;DHT22;40108;53.152;5.844;2023-04-26T15:38:03;9.00;62.80
54202;DHT22;40108;53.152;5.844;2023-04-26T15:40:29;8.90;63.10
54202;DHT22;40108;53.152;5.844;2023-04-26T15:42:55;8.80;64.10
54202;DHT22;40108;53.152;5.844;2023-04-26T15:45:20;8.80;63.50
54202;DHT22;40108;53.152;5.844;2023-04-26T15:47:46;8.70;66.90
54202;DHT22;40108;53.152;5.844;2023-04-26T15:50:12;8.70;68.40
54202;DHT22;40108;53.152;5.844;2023-04-26T15:52:38;8.70;69.90
54202;DHT22;40108;53.152;5.844;2023-04-26T15:55:05;8.60;70.20
54202;DHT22;40108;53.152;5.844;2023-04-26T15:57:32;8.60;70.00
54202;DHT22;40108;53.152;5.844;2023-04-26T15:59:58;8.60;70.30
54202;DHT22;40108;53.152;5.844;2023-04-26T16:02:25;8.50;70.20